sensor_id;sensor_type;location;lat;lon;timestamp;P1;durP1;ratioP1;P2;durP2;ratioP2
76978;SDS011;65911;47.502;19.148;2023-04-15T00:02:56;3.97;;;3.33;;
76978;SDS011;65911;47.502;19.148;2023-04-15T00:05:59;3.47;;;2.70;;
76978;SDS011;65911;47.502;19.148;2023-04-15T00:09:02;3.15;;;2.78;;
76978;SDS011;65911;47.502;19.148;2023-04-15T00:12:04;3.20;;;2.70;;
76978;SDS011;65911;47.502;19.148;2023-04-15T00:15:07;2.97;;;2.70;;
76978;SDS011;65911;47.502;19.148;2023-04-15T00:18:10;3.38;;;2.70;;
76978;SDS011;65911;47.502;19.148;2023-04-15T00:21:12;4.25;;;2.80;;
76978;SDS011;65911;47.502;19.148;2023-04-15T00:24:14;2.90;;;2.37;;
76978;SDS011;65911;47.502;19.148;2023-04-15T00:27:16;3.45;;;2.40;;
76978;SDS011;65911;47.502;19.148;2023-04-15T00:30:18;3.22;;;2.50;;
76978;SDS011;65911;47.502;19.148;2023-04-15T00:33:21;3.80;;;2.57;;
76978;SDS011;65911;47.502;19.148;2023-04-15T00:36:23;2.88;;;2.38;;
76978;SDS011;65911;47.502;19.148;2023-04-15T00:39:26;2.83;;;2.53;;
76978;SDS011;65911;47.502;19.148;2023-04-15T00:42:28;3.15;;;2.40;;
76978;SDS011;65911;47.502;19.148;2023-04-15T00:45:31;3.28;;;2.90;;
76978;SDS011;65911;47.502;19.148;2023-04-15T00:48:34;2.65;;;2.40;;
76978;SDS011;65911;47.502;19.148;2023-04-15T00:51:37;3.03;;;2.38;;
76978;SDS011;65911;47.502;19.148;2023-04-15T00:54:39;3.80;;;2.60;;
76978;SDS011;65911;47.502;19.148;2023-04-15T00:57:41;2.95;;;2.50;;
76978;SDS011;65911;47.502;19.148;2023-04-15T01:00:43;3.50;;;2.53;;
76978;SDS011;65911;47.502;19.148;2023-04-15T01:03:48;3.10;;;2.33;;
76978;SDS011;65911;47.502;19.148;2023-04-15T01:06:51;3.72;;;2.72;;
76978;SDS011;65911;47.502;19.148;2023-04-15T01:09:53;3.00;;;2.30;;
76978;SDS011;65911;47.502;19.148;2023-04-15T01:12:56;3.20;;;2.50;;
76978;SDS011;65911;47.502;19.148;2023-04-15T01:15:59;3.08;;;2.63;;
76978;SDS011;65911;47.502;19.148;2023-04-15T01:19:07;3.70;;;2.97;;
76978;SDS011;65911;47.502;19.148;2023-04-15T01:22:09;3.47;;;2.60;;
76978;SDS011;65911;47.502;19.148;2023-04-15T01:25:14;4.13;;;2.40;;
76978;SDS011;65911;47.502;19.148;2023-04-15T01:28:19;3.33;;;3.00;;
76978;SDS011;65911;47.502;19.148;2023-04-15T01:31:22;3.58;;;2.72;;
76978;SDS011;65911;47.502;19.148;2023-04-15T01:34:24;4.83;;;3.43;;
76978;SDS011;65911;47.502;19.148;2023-04-15T01:37:28;5.05;;;3.40;;
76978;SDS011;65911;47.502;19.148;2023-04-15T01:40:30;3.85;;;3.05;;
76978;SDS011;65911;47.502;19.148;2023-04-15T01:43:33;4.40;;;3.28;;
76978;SDS011;65911;47.502;19.148;2023-04-15T01:46:37;4.20;;;3.35;;
76978;SDS011;65911;47.502;19.148;2023-04-15T01:49:39;5.00;;;3.92;;
76978;SDS011;65911;47.502;19.148;2023-04-15T01:52:41;5.00;;;3.55;;
76978;SDS011;65911;47.502;19.148;2023-04-15T01:55:44;5.73;;;3.60;;
76978;SDS011;65911;47.502;19.148;2023-04-15T01:58:48;6.55;;;4.60;;
76978;SDS011;65911;47.502;19.148;2023-04-15T02:01:50;4.47;;;3.78;;
76978;SDS011;65911;47.502;19.148;2023-04-15T02:04:54;5.30;;;4.00;;
76978;SDS011;65911;47.502;19.148;2023-04-15T02:07:56;4.28;;;3.47;;
76978;SDS011;65911;47.502;19.148;2023-04-15T02:10:58;6.60;;;3.97;;
76978;SDS011;65911;47.502;19.148;2023-04-15T02:14:02;5.43;;;3.55;;
76978;SDS011;65911;47.502;19.148;2023-04-15T02:17:06;5.40;;;4.10;;
76978;SDS011;65911;47.502;19.148;2023-04-15T02:20:09;4.88;;;3.70;;
76978;SDS011;65911;47.502;19.148;2023-04-15T02:23:12;5.20;;;3.70;;
76978;SDS011;65911;47.502;19.148;2023-04-15T02:26:17;5.00;;;3.73;;
76978;SDS011;65911;47.502;19.148;2023-04-15T02:29:19;5.22;;;3.75;;
76978;SDS011;65911;47.502;19.148;2023-04-15T02:32:22;5.32;;;3.60;;
76978;SDS011;65911;47.502;19.148;2023-04-15T02:35:25;5.23;;;3.90;;
76978;SDS011;65911;47.502;19.148;2023-04-15T02:38:28;5.68;;;3.70;;
76978;SDS011;65911;47.502;19.148;2023-04-15T02:41:30;6.57;;;3.83;;
76978;SDS011;65911;47.502;19.148;2023-04-15T02:44:32;5.85;;;4.00;;
76978;SDS011;65911;47.502;19.148;2023-04-15T02:47:38;5.22;;;3.97;;
76978;SDS011;65911;47.502;19.148;2023-04-15T02:50:42;4.72;;;3.80;;
76978;SDS011;65911;47.502;19.148;2023-04-15T02:53:47;4.25;;;3.70;;
76978;SDS011;65911;47.502;19.148;2023-04-15T02:56:50;5.37;;;3.67;;
76978;SDS011;65911;47.502;19.148;2023-04-15T02:59:56;5.45;;;3.95;;
76978;SDS011;65911;47.502;19.148;2023-04-15T03:03:01;5.00;;;3.83;;
76978;SDS011;65911;47.502;19.148;2023-04-15T03:06:04;5.00;;;3.73;;
76978;SDS011;65911;47.502;19.148;2023-04-15T03:09:06;4.70;;;3.30;;
76978;SDS011;65911;47.502;19.148;2023-04-15T03:12:10;5.43;;;3.30;;
76978;SDS011;65911;47.502;19.148;2023-04-15T03:15:12;4.35;;;3.60;;
76978;SDS011;65911;47.502;19.148;2023-04-15T03:18:18;4.30;;;3.03;;
76978;SDS011;65911;47.502;19.148;2023-04-15T03:21:20;4.20;;;3.33;;
76978;SDS011;65911;47.502;19.148;2023-04-15T03:24:23;6.00;;;3.58;;
76978;SDS011;65911;47.502;19.148;2023-04-15T03:27:26;4.23;;;3.27;;
76978;SDS011;65911;47.502;19.148;2023-04-15T03:30:31;4.28;;;3.10;;
76978;SDS011;65911;47.502;19.148;2023-04-15T03:33:34;4.57;;;3.40;;
76978;SDS011;65911;47.502;19.148;2023-04-15T03:36:36;4.63;;;3.40;;
76978;SDS011;65911;47.502;19.148;2023-04-15T03:39:38;4.13;;;2.90;;
76978;SDS011;65911;47.502;19.148;2023-04-15T03:42:40;5.10;;;2.88;;
76978;SDS011;65911;47.502;19.148;2023-04-15T03:45:42;3.75;;;2.85;;
76978;SDS011;65911;47.502;19.148;2023-04-15T03:48:45;4.88;;;3.47;;
76978;SDS011;65911;47.502;19.148;2023-04-15T03:51:48;5.13;;;3.45;;
76978;SDS011;65911;47.502;19.148;2023-04-15T03:54:50;4.80;;;3.05;;
76978;SDS011;65911;47.502;19.148;2023-04-15T03:57:52;4.37;;;2.90;;
76978;SDS011;65911;47.502;19.148;2023-04-15T04:00:54;5.60;;;2.63;;
76978;SDS011;65911;47.502;19.148;2023-04-15T04:03:57;3.92;;;3.05;;
76978;SDS011;65911;47.502;19.148;2023-04-15T04:06:59;3.67;;;2.77;;
76978;SDS011;65911;47.502;19.148;2023-04-15T04:10:02;4.50;;;2.85;;
76978;SDS011;65911;47.502;19.148;2023-04-15T04:13:04;4.00;;;3.35;;
76978;SDS011;65911;47.502;19.148;2023-04-15T04:16:06;4.50;;;3.28;;
76978;SDS011;65911;47.502;19.148;2023-04-15T04:19:09;6.30;;;3.22;;
76978;SDS011;65911;47.502;19.148;2023-04-15T04:22:12;4.00;;;3.10;;
76978;SDS011;65911;47.502;19.148;2023-04-15T04:25:14;4.60;;;2.90;;
76978;SDS011;65911;47.502;19.148;2023-04-15T04:28:17;4.67;;;2.90;;
76978;SDS011;65911;47.502;19.148;2023-04-15T04:31:19;5.47;;;3.30;;
76978;SDS011;65911;47.502;19.148;2023-04-15T04:34:22;4.13;;;3.10;;
76978;SDS011;65911;47.502;19.148;2023-04-15T04:37:24;4.90;;;3.50;;
76978;SDS011;65911;47.502;19.148;2023-04-15T04:40:26;3.88;;;3.00;;
76978;SDS011;65911;47.502;19.148;2023-04-15T04:43:28;4.20;;;3.03;;
76978;SDS011;65911;47.502;19.148;2023-04-15T04:46:31;4.30;;;3.25;;
76978;SDS011;65911;47.502;19.148;2023-04-15T04:49:33;4.18;;;3.13;;
76978;SDS011;65911;47.502;19.148;2023-04-15T04:52:35;4.85;;;2.92;;
76978;SDS011;65911;47.502;19.148;2023-04-15T04:55:37;3.92;;;2.80;;
76978;SDS011;65911;47.502;19.148;2023-04-15T04:58:39;4.60;;;2.93;;
76978;SDS011;65911;47.502;19.148;2023-04-15T05:01:42;5.35;;;3.28;;
76978;SDS011;65911;47.502;19.148;2023-04-15T05:04:44;4.95;;;2.95;;
76978;SDS011;65911;47.502;19.148;2023-04-15T05:07:46;5.33;;;3.13;;
76978;SDS011;65911;47.502;19.148;2023-04-15T05:10:51;3.47;;;2.78;;
76978;SDS011;65911;47.502;19.148;2023-04-15T05:13:53;3.58;;;3.00;;
76978;SDS011;65911;47.502;19.148;2023-04-15T05:16:55;5.47;;;3.00;;
76978;SDS011;65911;47.502;19.148;2023-04-15T05:19:57;6.25;;;3.03;;
76978;SDS011;65911;47.502;19.148;2023-04-15T05:22:59;4.53;;;3.10;;
76978;SDS011;65911;47.502;19.148;2023-04-15T05:26:02;4.88;;;2.83;;
76978;SDS011;65911;47.502;19.148;2023-04-15T05:29:04;3.63;;;2.70;;
76978;SDS011;65911;47.502;19.148;2023-04-15T05:32:06;4.38;;;2.90;;
76978;SDS011;65911;47.502;19.148;2023-04-15T05:35:08;4.95;;;2.83;;
76978;SDS011;65911;47.502;19.148;2023-04-15T05:38:10;4.30;;;3.13;;
76978;SDS011;65911;47.502;19.148;2023-04-15T05:41:13;4.93;;;2.85;;
76978;SDS011;65911;47.502;19.148;2023-04-15T05:44:19;4.85;;;3.38;;
76978;SDS011;65911;47.502;19.148;2023-04-15T05:47:22;3.45;;;2.97;;
76978;SDS011;65911;47.502;19.148;2023-04-15T05:50:24;3.53;;;3.03;;
76978;SDS011;65911;47.502;19.148;2023-04-15T05:53:27;3.53;;;2.85;;
76978;SDS011;65911;47.502;19.148;2023-04-15T05:56:29;3.47;;;3.00;;
76978;SDS011;65911;47.502;19.148;2023-04-15T05:59:31;3.60;;;2.80;;
76978;SDS011;65911;47.502;19.148;2023-04-15T06:02:33;3.30;;;2.75;;
76978;SDS011;65911;47.502;19.148;2023-04-15T06:05:36;3.47;;;3.03;;
76978;SDS011;65911;47.502;19.148;2023-04-15T06:08:38;4.17;;;3.23;;
76978;SDS011;65911;47.502;19.148;2023-04-15T06:11:40;3.55;;;2.60;;
76978;SDS011;65911;47.502;19.148;2023-04-15T06:14:42;3.22;;;2.65;;
76978;SDS011;65911;47.502;19.148;2023-04-15T06:17:45;3.72;;;3.00;;
76978;SDS011;65911;47.502;19.148;2023-04-15T06:20:47;3.97;;;2.72;;
76978;SDS011;65911;47.502;19.148;2023-04-15T06:23:49;3.40;;;3.10;;
76978;SDS011;65911;47.502;19.148;2023-04-15T06:26:51;3.00;;;2.60;;
76978;SDS011;65911;47.502;19.148;2023-04-15T06:29:53;3.87;;;2.60;;
76978;SDS011;65911;47.502;19.148;2023-04-15T06:32:56;3.80;;;2.83;;
76978;SDS011;65911;47.502;19.148;2023-04-15T06:35:58;3.53;;;2.63;;
76978;SDS011;65911;47.502;19.148;2023-04-15T06:39:00;3.73;;;2.63;;
76978;SDS011;65911;47.502;19.148;2023-04-15T06:42:03;3.25;;;2.58;;
76978;SDS011;65911;47.502;19.148;2023-04-15T06:45:06;3.28;;;2.75;;
76978;SDS011;65911;47.502;19.148;2023-04-15T06:48:09;2.78;;;2.15;;
76978;SDS011;65911;47.502;19.148;2023-04-15T06:51:11;2.50;;;2.30;;
76978;SDS011;65911;47.502;19.148;2023-04-15T06:54:13;3.75;;;2.63;;
76978;SDS011;65911;47.502;19.148;2023-04-15T06:57:16;2.85;;;2.40;;
76978;SDS011;65911;47.502;19.148;2023-04-15T07:00:18;5.07;;;2.43;;
76978;SDS011;65911;47.502;19.148;2023-04-15T07:03:21;2.55;;;2.20;;
76978;SDS011;65911;47.502;19.148;2023-04-15T07:06:23;2.40;;;2.20;;
76978;SDS011;65911;47.502;19.148;2023-04-15T07:09:25;2.43;;;1.90;;
76978;SDS011;65911;47.502;19.148;2023-04-15T07:12:27;2.75;;;2.00;;
76978;SDS011;65911;47.502;19.148;2023-04-15T07:15:29;2.40;;;2.00;;
76978;SDS011;65911;47.502;19.148;2023-04-15T07:18:32;3.53;;;1.85;;
76978;SDS011;65911;47.502;19.148;2023-04-15T07:21:34;1.67;;;1.58;;
76978;SDS011;65911;47.502;19.148;2023-04-15T07:24:36;2.35;;;1.50;;
76978;SDS011;65911;47.502;19.148;2023-04-15T07:27:38;2.22;;;1.65;;
76978;SDS011;65911;47.502;19.148;2023-04-15T07:30:41;1.80;;;1.40;;
76978;SDS011;65911;47.502;19.148;2023-04-15T07:33:43;2.00;;;1.45;;
76978;SDS011;65911;47.502;19.148;2023-04-15T07:36:46;1.75;;;1.60;;
76978;SDS011;65911;47.502;19.148;2023-04-15T07:39:52;1.67;;;1.20;;
76978;SDS011;65911;47.502;19.148;2023-04-15T07:42:55;2.53;;;1.60;;
76978;SDS011;65911;47.502;19.148;2023-04-15T07:45:59;1.80;;;1.30;;
76978;SDS011;65911;47.502;19.148;2023-04-15T07:49:01;2.55;;;1.45;;
76978;SDS011;65911;47.502;19.148;2023-04-15T07:52:03;2.17;;;1.58;;
76978;SDS011;65911;47.502;19.148;2023-04-15T07:55:09;1.90;;;1.70;;
76978;SDS011;65911;47.502;19.148;2023-04-15T07:58:12;1.65;;;1.48;;
76978;SDS011;65911;47.502;19.148;2023-04-15T08:01:14;1.87;;;1.20;;
76978;SDS011;65911;47.502;19.148;2023-04-15T08:04:17;1.90;;;1.38;;
76978;SDS011;65911;47.502;19.148;2023-04-15T08:07:19;1.40;;;1.10;;
76978;SDS011;65911;47.502;19.148;2023-04-15T08:10:22;1.27;;;1.07;;
76978;SDS011;65911;47.502;19.148;2023-04-15T08:13:24;1.40;;;1.30;;
76978;SDS011;65911;47.502;19.148;2023-04-15T08:16:27;1.65;;;1.30;;
76978;SDS011;65911;47.502;19.148;2023-04-15T08:19:29;1.50;;;1.40;;
76978;SDS011;65911;47.502;19.148;2023-04-15T08:22:31;2.25;;;1.15;;
76978;SDS011;65911;47.502;19.148;2023-04-15T08:25:34;1.40;;;1.00;;
76978;SDS011;65911;47.502;19.148;2023-04-15T08:28:36;1.20;;;1.10;;
76978;SDS011;65911;47.502;19.148;2023-04-15T08:31:39;1.20;;;0.90;;
76978;SDS011;65911;47.502;19.148;2023-04-15T08:34:41;0.70;;;0.63;;
76978;SDS011;65911;47.502;19.148;2023-04-15T08:37:44;0.90;;;0.80;;
76978;SDS011;65911;47.502;19.148;2023-04-15T08:40:46;0.90;;;0.87;;
76978;SDS011;65911;47.502;19.148;2023-04-15T08:44:03;0.75;;;0.73;;
76978;SDS011;65911;47.502;19.148;2023-04-15T08:47:06;1.55;;;1.05;;
76978;SDS011;65911;47.502;19.148;2023-04-15T08:50:09;1.50;;;1.27;;
76978;SDS011;65911;47.502;19.148;2023-04-15T08:53:12;1.60;;;0.80;;
76978;SDS011;65911;47.502;19.148;2023-04-15T08:56:15;2.78;;;0.80;;
76978;SDS011;65911;47.502;19.148;2023-04-15T08:59:18;1.00;;;0.82;;
76978;SDS011;65911;47.502;19.148;2023-04-15T09:02:22;1.80;;;0.80;;
76978;SDS011;65911;47.502;19.148;2023-04-15T09:05:26;1.20;;;0.90;;
76978;SDS011;65911;47.502;19.148;2023-04-15T09:08:28;1.08;;;0.82;;
76978;SDS011;65911;47.502;19.148;2023-04-15T09:11:31;1.13;;;0.70;;
76978;SDS011;65911;47.502;19.148;2023-04-15T09:14:33;0.95;;;0.50;;
76978;SDS011;65911;47.502;19.148;2023-04-15T09:17:36;0.68;;;0.60;;
76978;SDS011;65911;47.502;19.148;2023-04-15T09:20:43;1.30;;;0.90;;
76978;SDS011;65911;47.502;19.148;2023-04-15T09:23:58;1.30;;;1.10;;
76978;SDS011;65911;47.502;19.148;2023-04-15T09:27:02;1.25;;;0.70;;
76978;SDS011;65911;47.502;19.148;2023-04-15T09:30:07;0.98;;;0.80;;
76978;SDS011;65911;47.502;19.148;2023-04-15T09:33:09;0.73;;;0.57;;
76978;SDS011;65911;47.502;19.148;2023-04-15T09:36:15;0.80;;;0.80;;
76978;SDS011;65911;47.502;19.148;2023-04-15T09:39:17;1.20;;;0.70;;
76978;SDS011;65911;47.502;19.148;2023-04-15T09:42:19;0.93;;;0.63;;
76978;SDS011;65911;47.502;19.148;2023-04-15T09:45:28;0.77;;;0.63;;
76978;SDS011;65911;47.502;19.148;2023-04-15T09:48:37;1.33;;;0.73;;
76978;SDS011;65911;47.502;19.148;2023-04-15T09:51:56;0.52;;;0.52;;
76978;SDS011;65911;47.502;19.148;2023-04-15T09:55:07;1.58;;;0.60;;
76978;SDS011;65911;47.502;19.148;2023-04-15T09:58:16;0.47;;;0.47;;
76978;SDS011;65911;47.502;19.148;2023-04-15T10:01:19;1.33;;;0.73;;
76978;SDS011;65911;47.502;19.148;2023-04-15T10:04:21;0.80;;;0.60;;
76978;SDS011;65911;47.502;19.148;2023-04-15T10:07:25;0.50;;;0.50;;
76978;SDS011;65911;47.502;19.148;2023-04-15T10:10:28;0.77;;;0.65;;
76978;SDS011;65911;47.502;19.148;2023-04-15T10:13:30;0.43;;;0.43;;
76978;SDS011;65911;47.502;19.148;2023-04-15T10:16:37;1.17;;;0.40;;
76978;SDS011;65911;47.502;19.148;2023-04-15T10:19:41;0.80;;;0.50;;
76978;SDS011;65911;47.502;19.148;2023-04-15T10:22:43;0.88;;;0.52;;
76978;SDS011;65911;47.502;19.148;2023-04-15T10:25:46;0.93;;;0.70;;
76978;SDS011;65911;47.502;19.148;2023-04-15T10:28:50;2.20;;;1.10;;
76978;SDS011;65911;47.502;19.148;2023-04-15T10:32:01;1.63;;;1.52;;
76978;SDS011;65911;47.502;19.148;2023-04-15T10:35:04;2.17;;;0.93;;
76978;SDS011;65911;47.502;19.148;2023-04-15T10:41:46;1.73;;;1.33;;
76978;SDS011;65911;47.502;19.148;2023-04-15T10:45:15;1.73;;;1.07;;
76978;SDS011;65911;47.502;19.148;2023-04-15T10:48:18;1.25;;;1.10;;
76978;SDS011;65911;47.502;19.148;2023-04-15T10:51:32;1.10;;;1.00;;
76978;SDS011;65911;47.502;19.148;2023-04-15T10:54:35;1.02;;;0.90;;
76978;SDS011;65911;47.502;19.148;2023-04-15T10:57:40;1.60;;;0.90;;
76978;SDS011;65911;47.502;19.148;2023-04-15T11:00:43;2.53;;;0.98;;
76978;SDS011;65911;47.502;19.148;2023-04-15T11:03:52;0.50;;;0.40;;
76978;SDS011;65911;47.502;19.148;2023-04-15T11:07:05;0.50;;;0.50;;
76978;SDS011;65911;47.502;19.148;2023-04-15T11:13:20;0.35;;;0.35;;
76978;SDS011;65911;47.502;19.148;2023-04-15T11:16:26;0.70;;;0.60;;
76978;SDS011;65911;47.502;19.148;2023-04-15T11:19:37;0.60;;;0.60;;
76978;SDS011;65911;47.502;19.148;2023-04-15T11:22:45;0.65;;;0.45;;
76978;SDS011;65911;47.502;19.148;2023-04-15T11:25:51;0.60;;;0.60;;
76978;SDS011;65911;47.502;19.148;2023-04-15T11:28:56;0.80;;;0.75;;
76978;SDS011;65911;47.502;19.148;2023-04-15T11:32:03;0.32;;;0.30;;
76978;SDS011;65911;47.502;19.148;2023-04-15T11:35:07;0.70;;;0.70;;
76978;SDS011;65911;47.502;19.148;2023-04-15T11:38:10;0.73;;;0.40;;
76978;SDS011;65911;47.502;19.148;2023-04-15T11:41:14;0.88;;;0.40;;
76978;SDS011;65911;47.502;19.148;2023-04-15T11:44:21;0.50;;;0.38;;
76978;SDS011;65911;47.502;19.148;2023-04-15T11:47:23;0.53;;;0.53;;
76978;SDS011;65911;47.502;19.148;2023-04-15T11:50:26;0.40;;;0.40;;
76978;SDS011;65911;47.502;19.148;2023-04-15T11:56:40;0.40;;;0.40;;
76978;SDS011;65911;47.502;19.148;2023-04-15T11:59:42;0.63;;;0.60;;
76978;SDS011;65911;47.502;19.148;2023-04-15T12:02:46;0.45;;;0.40;;
76978;SDS011;65911;47.502;19.148;2023-04-15T12:09:08;0.50;;;0.30;;
76978;SDS011;65911;47.502;19.148;2023-04-15T12:12:11;0.68;;;0.68;;
76978;SDS011;65911;47.502;19.148;2023-04-15T12:15:14;0.95;;;0.40;;
76978;SDS011;65911;47.502;19.148;2023-04-15T12:18:17;0.40;;;0.40;;
76978;SDS011;65911;47.502;19.148;2023-04-15T12:21:24;1.05;;;0.43;;
76978;SDS011;65911;47.502;19.148;2023-04-15T12:24:28;0.75;;;0.50;;
76978;SDS011;65911;47.502;19.148;2023-04-15T12:27:34;0.70;;;0.70;;
76978;SDS011;65911;47.502;19.148;2023-04-15T12:30:47;0.52;;;0.50;;
76978;SDS011;65911;47.502;19.148;2023-04-15T12:33:56;1.48;;;0.60;;
76978;SDS011;65911;47.502;19.148;2023-04-15T12:37:00;1.25;;;0.80;;
76978;SDS011;65911;47.502;19.148;2023-04-15T12:40:03;1.23;;;0.90;;
76978;SDS011;65911;47.502;19.148;2023-04-15T12:43:09;1.35;;;0.70;;
76978;SDS011;65911;47.502;19.148;2023-04-15T12:46:14;1.10;;;1.00;;
76978;SDS011;65911;47.502;19.148;2023-04-15T12:49:17;1.70;;;0.97;;
76978;SDS011;65911;47.502;19.148;2023-04-15T12:52:21;1.75;;;1.17;;
76978;SDS011;65911;47.502;19.148;2023-04-15T12:55:25;1.67;;;1.42;;
76978;SDS011;65911;47.502;19.148;2023-04-15T12:58:27;2.83;;;1.38;;
76978;SDS011;65911;47.502;19.148;2023-04-15T13:01:29;1.23;;;1.13;;
76978;SDS011;65911;47.502;19.148;2023-04-15T13:04:32;1.73;;;1.05;;
76978;SDS011;65911;47.502;19.148;2023-04-15T13:07:36;1.58;;;1.48;;
76978;SDS011;65911;47.502;19.148;2023-04-15T13:10:38;2.50;;;1.40;;
76978;SDS011;65911;47.502;19.148;2023-04-15T13:13:40;2.03;;;1.30;;
76978;SDS011;65911;47.502;19.148;2023-04-15T13:16:42;1.95;;;1.33;;
76978;SDS011;65911;47.502;19.148;2023-04-15T13:19:45;1.33;;;1.13;;
76978;SDS011;65911;47.502;19.148;2023-04-15T13:22:47;2.83;;;1.30;;
76978;SDS011;65911;47.502;19.148;2023-04-15T13:25:49;2.83;;;1.80;;
76978;SDS011;65911;47.502;19.148;2023-04-15T13:28:51;1.95;;;1.20;;
76978;SDS011;65911;47.502;19.148;2023-04-15T13:31:54;1.10;;;0.93;;
76978;SDS011;65911;47.502;19.148;2023-04-15T13:35:00;1.65;;;1.27;;
76978;SDS011;65911;47.502;19.148;2023-04-15T13:38:02;2.08;;;1.45;;
76978;SDS011;65911;47.502;19.148;2023-04-15T13:41:05;1.90;;;1.37;;
76978;SDS011;65911;47.502;19.148;2023-04-15T13:44:07;3.38;;;1.42;;
76978;SDS011;65911;47.502;19.148;2023-04-15T13:47:09;1.88;;;1.48;;
76978;SDS011;65911;47.502;19.148;2023-04-15T13:50:11;1.87;;;1.60;;
76978;SDS011;65911;47.502;19.148;2023-04-15T13:53:14;1.75;;;1.25;;
76978;SDS011;65911;47.502;19.148;2023-04-15T13:56:16;2.45;;;1.40;;
76978;SDS011;65911;47.502;19.148;2023-04-15T13:59:18;2.67;;;1.40;;
76978;SDS011;65911;47.502;19.148;2023-04-15T14:02:20;2.40;;;1.58;;
76978;SDS011;65911;47.502;19.148;2023-04-15T14:05:24;2.13;;;1.63;;
76978;SDS011;65911;47.502;19.148;2023-04-15T14:08:26;2.13;;;1.25;;
76978;SDS011;65911;47.502;19.148;2023-04-15T14:11:28;1.63;;;1.30;;
76978;SDS011;65911;47.502;19.148;2023-04-15T14:14:30;1.75;;;1.27;;
76978;SDS011;65911;47.502;19.148;2023-04-15T14:17:33;1.92;;;1.40;;
76978;SDS011;65911;47.502;19.148;2023-04-15T14:20:35;1.70;;;1.50;;
76978;SDS011;65911;47.502;19.148;2023-04-15T14:23:38;2.42;;;1.40;;
76978;SDS011;65911;47.502;19.148;2023-04-15T14:26:41;2.25;;;1.50;;
76978;SDS011;65911;47.502;19.148;2023-04-15T14:29:44;1.52;;;1.23;;
76978;SDS011;65911;47.502;19.148;2023-04-15T14:32:46;2.40;;;1.73;;
76978;SDS011;65911;47.502;19.148;2023-04-15T14:35:50;3.45;;;1.45;;
76978;SDS011;65911;47.502;19.148;2023-04-15T14:38:52;2.85;;;2.03;;
76978;SDS011;65911;47.502;19.148;2023-04-15T14:41:54;1.67;;;1.30;;
76978;SDS011;65911;47.502;19.148;2023-04-15T14:44:57;1.70;;;1.52;;
76978;SDS011;65911;47.502;19.148;2023-04-15T14:47:59;1.50;;;1.40;;
76978;SDS011;65911;47.502;19.148;2023-04-15T14:51:02;1.87;;;1.30;;
76978;SDS011;65911;47.502;19.148;2023-04-15T14:54:04;1.55;;;1.45;;
76978;SDS011;65911;47.502;19.148;2023-04-15T14:57:07;2.38;;;1.50;;
76978;SDS011;65911;47.502;19.148;2023-04-15T15:00:10;2.00;;;1.80;;
76978;SDS011;65911;47.502;19.148;2023-04-15T15:03:16;1.65;;;0.85;;
76978;SDS011;65911;47.502;19.148;2023-04-15T15:06:19;1.40;;;0.70;;
76978;SDS011;65911;47.502;19.148;2023-04-15T15:09:23;0.88;;;0.73;;
76978;SDS011;65911;47.502;19.148;2023-04-15T15:12:25;0.93;;;0.77;;
76978;SDS011;65911;47.502;19.148;2023-04-15T15:15:28;0.77;;;0.55;;
76978;SDS011;65911;47.502;19.148;2023-04-15T15:18:30;1.48;;;0.82;;
76978;SDS011;65911;47.502;19.148;2023-04-15T15:21:32;0.50;;;0.50;;
76978;SDS011;65911;47.502;19.148;2023-04-15T15:24:35;0.45;;;0.40;;
76978;SDS011;65911;47.502;19.148;2023-04-15T15:27:37;0.60;;;0.50;;
76978;SDS011;65911;47.502;19.148;2023-04-15T15:30:39;0.75;;;0.73;;
76978;SDS011;65911;47.502;19.148;2023-04-15T15:33:41;0.30;;;0.20;;
76978;SDS011;65911;47.502;19.148;2023-04-15T15:36:44;1.05;;;1.00;;
76978;SDS011;65911;47.502;19.148;2023-04-15T15:39:47;0.68;;;0.68;;
76978;SDS011;65911;47.502;19.148;2023-04-15T15:42:49;1.43;;;0.63;;
76978;SDS011;65911;47.502;19.148;2023-04-15T15:45:52;0.57;;;0.55;;
76978;SDS011;65911;47.502;19.148;2023-04-15T15:48:56;0.75;;;0.40;;
76978;SDS011;65911;47.502;19.148;2023-04-15T15:51:59;0.97;;;0.57;;
76978;SDS011;65911;47.502;19.148;2023-04-15T15:55:01;1.65;;;1.00;;
76978;SDS011;65911;47.502;19.148;2023-04-15T15:58:04;1.33;;;0.80;;
76978;SDS011;65911;47.502;19.148;2023-04-15T16:01:06;2.13;;;1.15;;
76978;SDS011;65911;47.502;19.148;2023-04-15T16:04:08;0.98;;;0.50;;
76978;SDS011;65911;47.502;19.148;2023-04-15T16:07:11;0.65;;;0.65;;
76978;SDS011;65911;47.502;19.148;2023-04-15T16:10:13;1.90;;;0.77;;
76978;SDS011;65911;47.502;19.148;2023-04-15T16:13:16;2.10;;;1.13;;
76978;SDS011;65911;47.502;19.148;2023-04-15T16:16:19;2.38;;;1.10;;
76978;SDS011;65911;47.502;19.148;2023-04-15T16:19:21;0.80;;;0.73;;
76978;SDS011;65911;47.502;19.148;2023-04-15T16:22:24;1.73;;;1.27;;
76978;SDS011;65911;47.502;19.148;2023-04-15T16:25:27;2.78;;;1.77;;
76978;SDS011;65911;47.502;19.148;2023-04-15T16:28:29;1.95;;;1.30;;
76978;SDS011;65911;47.502;19.148;2023-04-15T16:31:31;3.08;;;1.45;;
76978;SDS011;65911;47.502;19.148;2023-04-15T16:34:33;2.13;;;1.52;;
76978;SDS011;65911;47.502;19.148;2023-04-15T16:37:36;1.90;;;1.02;;
76978;SDS011;65911;47.502;19.148;2023-04-15T16:40:38;2.45;;;1.30;;
76978;SDS011;65911;47.502;19.148;2023-04-15T16:43:40;2.50;;;1.40;;
76978;SDS011;65911;47.502;19.148;2023-04-15T16:46:43;1.90;;;1.48;;
76978;SDS011;65911;47.502;19.148;2023-04-15T16:49:45;1.92;;;1.38;;
76978;SDS011;65911;47.502;19.148;2023-04-15T16:52:47;1.27;;;0.93;;
76978;SDS011;65911;47.502;19.148;2023-04-15T16:55:49;1.85;;;1.48;;
76978;SDS011;65911;47.502;19.148;2023-04-15T16:58:51;2.88;;;1.17;;
76978;SDS011;65911;47.502;19.148;2023-04-15T17:01:54;2.38;;;1.60;;
76978;SDS011;65911;47.502;19.148;2023-04-15T17:04:56;2.28;;;1.75;;
76978;SDS011;65911;47.502;19.148;2023-04-15T17:07:58;1.83;;;1.40;;
76978;SDS011;65911;47.502;19.148;2023-04-15T17:11:01;1.95;;;1.45;;
76978;SDS011;65911;47.502;19.148;2023-04-15T17:14:03;1.70;;;1.17;;
76978;SDS011;65911;47.502;19.148;2023-04-15T17:17:05;2.40;;;1.63;;
76978;SDS011;65911;47.502;19.148;2023-04-15T17:20:07;2.45;;;1.45;;
76978;SDS011;65911;47.502;19.148;2023-04-15T17:23:10;2.40;;;2.20;;
76978;SDS011;65911;47.502;19.148;2023-04-15T17:26:12;2.67;;;1.30;;
76978;SDS011;65911;47.502;19.148;2023-04-15T17:29:14;2.97;;;1.80;;
76978;SDS011;65911;47.502;19.148;2023-04-15T17:32:17;2.13;;;1.35;;
76978;SDS011;65911;47.502;19.148;2023-04-15T17:35:19;1.92;;;1.42;;
76978;SDS011;65911;47.502;19.148;2023-04-15T17:38:21;2.33;;;1.60;;
76978;SDS011;65911;47.502;19.148;2023-04-15T17:41:23;2.13;;;1.50;;
76978;SDS011;65911;47.502;19.148;2023-04-15T17:44:26;2.60;;;1.50;;
76978;SDS011;65911;47.502;19.148;2023-04-15T17:47:28;2.33;;;1.45;;
76978;SDS011;65911;47.502;19.148;2023-04-15T17:50:30;2.42;;;1.55;;
76978;SDS011;65911;47.502;19.148;2023-04-15T17:53:32;2.60;;;1.83;;
76978;SDS011;65911;47.502;19.148;2023-04-15T17:56:34;3.42;;;1.70;;
76978;SDS011;65911;47.502;19.148;2023-04-15T17:59:37;5.25;;;1.90;;
76978;SDS011;65911;47.502;19.148;2023-04-15T18:02:42;8.20;;;2.60;;
76978;SDS011;65911;47.502;19.148;2023-04-15T18:05:44;7.25;;;2.70;;
76978;SDS011;65911;47.502;19.148;2023-04-15T18:08:47;15.23;;;3.58;;
76978;SDS011;65911;47.502;19.148;2023-04-15T18:11:49;12.98;;;3.83;;
76978;SDS011;65911;47.502;19.148;2023-04-15T18:14:52;10.93;;;3.17;;
76978;SDS011;65911;47.502;19.148;2023-04-15T18:17:54;10.27;;;3.08;;
76978;SDS011;65911;47.502;19.148;2023-04-15T18:20:56;11.73;;;3.40;;